Royal Prince — WCX8037 — position and weather

sailwx.info

Track history (hours):
 
Tides and Currents Weather Stations Pressure Air Temp Water Temp Dewpoint Dewpoint Depression Visibility Wind Speed Wind Dir Waves Ship Positions

Royal Prince

Owner: Golden Gate Scenic Steamship Corp, SAN FRANCISCO, CA. More information available from US FCC via Universal Licensing System and Coast Guard Vessel Documentation Center.

Last reported at 2016-Jul-23 02:22 UTC. Time now 2016-Jul-23 16:56 UTC.
Position N 37°49' W 122°25'.

; draft 3 m.

Type: Passenger vessel. MMSI: 366975760.

Date/timePositionNaut miles runAvg speedWind from/ knotsBaromVisibWave heightAir tempDewpointWater temp
2016-Jul-23 02:22N 37°49' W 122°25'2 2.9
2016-Jul-23 01:33N 37°49' W 122°28'1 1.3
2016-Jul-23 00:33N 37°50' W 122°27'1 1.5
2016-Jul-22 23:33N 37°49' W 122°25'1 0.8
2016-Jul-22 22:33N 37°49' W 122°25'0 0.0
2016-Jul-22 21:33N 37°49' W 122°25'2 2.3
2016-Jul-22 20:33N 37°49' W 122°28'2 2.3
2016-Jul-22 19:33N 37°49' W 122°25'2 2.1
2016-Jul-22 18:33N 37°49' W 122°28'1 1.1
2016-Jul-22 17:33N 37°50' W 122°27'2 1.7
2016-Jul-22 16:33N 37°49' W 122°25'0 0.0
2016-Jul-22 02:19N 37°49' W 122°25'3 3.6
2016-Jul-22 01:33N 37°49' W 122°28'1 1.2
2016-Jul-22 00:34N 37°50' W 122°27'2 2.0
2016-Jul-21 23:34N 37°49' W 122°25'1 0.7
2016-Jul-21 22:33N 37°49' W 122°25'0 0.0
2016-Jul-21 21:33N 37°49' W 122°25'3 2.9
2016-Jul-21 20:33N 37°49' W 122°29'3 2.9
2016-Jul-21 19:33N 37°49' W 122°25'2 2.3
2016-Jul-21 18:33N 37°49' W 122°28'1 0.9
2016-Jul-21 17:33N 37°50' W 122°27'2 2.1
2016-Jul-21 16:33N 37°49' W 122°25'0 0.0
2016-Jul-21 02:22N 37°49' W 122°25'2 2.9
2016-Jul-21 01:34N 37°49' W 122°28'1 0.8
2016-Jul-21 00:33N 37°50' W 122°27'2 1.7
2016-Jul-20 23:33N 37°49' W 122°25'1 0.9
2016-Jul-20 22:33N 37°49' W 122°25'0 0.0
2016-Jul-20 21:31N 37°49' W 122°25'3 2.9
2016-Jul-20 20:33N 37°49' W 122°28'3 2.8
2016-Jul-20 19:33N 37°49' W 122°25'2 2.3
2016-Jul-20 18:33N 37°49' W 122°28'1 0.9
2016-Jul-20 17:33N 37°50' W 122°27'2 1.8
2016-Jul-20 16:33N 37°49' W 122°25'0 0.0
2016-Jul-20 02:31N 37°49' W 122°25'2 1.6
2016-Jul-20 01:33N 37°49' W 122°27'1 1.3
2016-Jul-20 00:33N 37°49' W 122°28'2 2.3
2016-Jul-19 23:33N 37°50' W 122°26'1 1.4
2016-Jul-19 22:33N 37°49' W 122°25'0 0.0
2016-Jul-19 21:29N 37°49' W 122°25'2 2.3
2016-Jul-19 20:33N 37°49' W 122°28'2 2.0
2016-Jul-19 19:29N 37°49' W 122°25'2 1.8
2016-Jul-19 18:33N 37°49' W 122°27'1 0.7
2016-Jul-19 17:33N 37°50' W 122°27'2 0.1
2016-Jul-19 02:23N 37°49' W 122°25'1 1.1
2016-Jul-19 01:33N 37°49' W 122°25'1 0.9
2016-Jul-19 00:33N 37°49' W 122°25'1 1.1
2016-Jul-18 23:33N 37°49' W 122°26'1 0.7
2016-Jul-18 22:34N 37°49' W 122°27'1 1.5
2016-Jul-18 21:33N 37°50' W 122°25'1 0.9
2016-Jul-18 20:24N 37°49' W 122°25'1 1.4
2016-Jul-18 19:33N 37°50' W 122°25'1 1.2
2016-Jul-18 18:33N 37°49' W 122°25'0 0.1
2016-Jul-18 17:33N 37°49' W 122°25'2 2.2
2016-Jul-18 16:34N 37°49' W 122°28'2 0.2
2016-Jul-18 02:19N 37°49' W 122°25'2 2.7
2016-Jul-18 01:33N 37°49' W 122°27'1 0.8
2016-Jul-18 00:33N 37°50' W 122°27'2 2.0
2016-Jul-17 23:33N 37°49' W 122°25'1 0.6
2016-Jul-17 22:33N 37°49' W 122°25'0 0.0
2016-Jul-17 21:33N 37°49' W 122°25'3 2.9
2016-Jul-17 20:34N 37°49' W 122°28'3 2.8
2016-Jul-17 19:32N 37°49' W 122°25'1 0.9
2016-Jul-17 18:33N 37°49' W 122°26'1 1.4
2016-Jul-17 17:33N 37°50' W 122°27'2 0.1
2016-Jul-17 02:24N 37°49' W 122°25'1 1.8
2016-Jul-17 01:34N 37°49' W 122°27'1 1.2
2016-Jul-17 00:34N 37°49' W 122°28'2 1.7
2016-Jul-16 23:33N 37°50' W 122°26'2 1.6
2016-Jul-16 22:34N 37°49' W 122°25'0 0.0
2016-Jul-16 21:33N 37°49' W 122°25'3 2.6
2016-Jul-16 20:33N 37°49' W 122°28'3 2.6
2016-Jul-16 19:33N 37°49' W 122°25'2 1.7
2016-Jul-16 18:34N 37°49' W 122°27'1 0.6
2016-Jul-16 17:33N 37°49' W 122°27'2 0.1
2016-Jul-16 02:23N 37°49' W 122°25'2 1.8
2016-Jul-16 01:33N 37°49' W 122°27'1 1.0
2016-Jul-16 00:33N 37°50' W 122°27'2 1.5
2016-Jul-15 23:33N 37°49' W 122°25'1 0.8
2016-Jul-15 22:33N 37°49' W 122°25'0 0.0
2016-Jul-15 21:32N 37°49' W 122°25'3 2.9
2016-Jul-15 20:33N 37°49' W 122°28'3 2.6
2016-Jul-15 19:27N 37°49' W 122°25'2 2.3
2016-Jul-15 18:33N 37°49' W 122°27'1 1.1
2016-Jul-15 17:33N 37°50' W 122°27'2 1.7
2016-Jul-15 16:26N 37°49' W 122°25'0 0.0
2016-Jul-15 15:33N 37°49' W 122°25'0 0.0
2016-Jul-15 02:21N 37°49' W 122°25'2 2.8
2016-Jul-15 01:33N 37°49' W 122°28'1 1.0
2016-Jul-15 00:33N 37°50' W 122°27'1 1.1
2016-Jul-14 23:33N 37°50' W 122°25'1 1.1
2016-Jul-14 22:30N 37°49' W 122°25'0 0.0
2016-Jul-14 21:33N 37°49' W 122°25'3 3.2
2016-Jul-14 20:33N 37°49' W 122°29'3 3.1
2016-Jul-14 19:33N 37°49' W 122°25'2 2.5
2016-Jul-14 18:33N 37°49' W 122°28'2 1.7
2016-Jul-14 17:33N 37°50' W 122°26'2 0.1
2016-Jul-14 04:17N 37°49' W 122°25'1 1.5
2016-Jul-14 03:33N 37°49' W 122°26'3 2.8
2016-Jul-14 02:33N 37°52' W 122°27'4 3.7
2016-Jul-14 01:33N 37°49' W 122°25'2 1.9
2016-Jul-14 00:33N 37°50' W 122°27'2 1.8
2016-Jul-13 23:33N 37°49' W 122°25'1 0.8
2016-Jul-13 22:30N 37°49' W 122°25'0 0.0
2016-Jul-13 21:31N 37°49' W 122°25'3 2.8
2016-Jul-13 20:33N 37°49' W 122°28'3 2.0
2016-Jul-13 19:12N 37°49' W 122°25'2 3.6
2016-Jul-13 18:33N 37°49' W 122°28'1 0.8
2016-Jul-13 17:33N 37°49' W 122°27'2 0.1
2016-Jul-13 02:26N 37°49' W 122°25'  
Track history (hours):
 
Tides and Currents Weather Stations Pressure Air Temp Water Temp Dewpoint Dewpoint Depression Visibility Wind Speed Wind Dir Waves Ship Positions

Royal Prince

Owner: Golden Gate Scenic Steamship Corp, SAN FRANCISCO, CA. More information available from US FCC via Universal Licensing System and Coast Guard Vessel Documentation Center.

Last reported at 2016-Jul-23 02:22 UTC. Time now 2016-Jul-23 16:56 UTC.
Position N 37°49' W 122°25'.

; draft 3 m.

Type: Passenger vessel. MMSI: 366975760.

Date/timePositionNaut miles runAvg speedWind from/ knotsBaromVisibWave heightAir tempDewpointWater temp
2016-Jul-23 02:22N 37°49' W 122°25'2 2.9
2016-Jul-23 01:33N 37°49' W 122°28'1 1.3
2016-Jul-23 00:33N 37°50' W 122°27'1 1.5
2016-Jul-22 23:33N 37°49' W 122°25'1 0.8
2016-Jul-22 22:33N 37°49' W 122°25'0 0.0
2016-Jul-22 21:33N 37°49' W 122°25'2 2.3
2016-Jul-22 20:33N 37°49' W 122°28'2 2.3
2016-Jul-22 19:33N 37°49' W 122°25'2 2.1
2016-Jul-22 18:33N 37°49' W 122°28'1 1.1
2016-Jul-22 17:33N 37°50' W 122°27'2 1.7
2016-Jul-22 16:33N 37°49' W 122°25'0 0.0
2016-Jul-22 02:19N 37°49' W 122°25'3 3.6
2016-Jul-22 01:33N 37°49' W 122°28'1 1.2
2016-Jul-22 00:34N 37°50' W 122°27'2 2.0
2016-Jul-21 23:34N 37°49' W 122°25'1 0.7
2016-Jul-21 22:33N 37°49' W 122°25'0 0.0
2016-Jul-21 21:33N 37°49' W 122°25'3 2.9
2016-Jul-21 20:33N 37°49' W 122°29'3 2.9
2016-Jul-21 19:33N 37°49' W 122°25'2 2.3
2016-Jul-21 18:33N 37°49' W 122°28'1 0.9
2016-Jul-21 17:33N 37°50' W 122°27'2 2.1
2016-Jul-21 16:33N 37°49' W 122°25'0 0.0
2016-Jul-21 02:22N 37°49' W 122°25'2 2.9
2016-Jul-21 01:34N 37°49' W 122°28'1 0.8
2016-Jul-21 00:33N 37°50' W 122°27'2 1.7
2016-Jul-20 23:33N 37°49' W 122°25'1 0.9
2016-Jul-20 22:33N 37°49' W 122°25'0 0.0
2016-Jul-20 21:31N 37°49' W 122°25'3 2.9
2016-Jul-20 20:33N 37°49' W 122°28'3 2.8
2016-Jul-20 19:33N 37°49' W 122°25'2 2.3
2016-Jul-20 18:33N 37°49' W 122°28'1 0.9
2016-Jul-20 17:33N 37°50' W 122°27'2 1.8
2016-Jul-20 16:33N 37°49' W 122°25'0 0.0
2016-Jul-20 02:31N 37°49' W 122°25'2 1.6
2016-Jul-20 01:33N 37°49' W 122°27'1 1.3
2016-Jul-20 00:33N 37°49' W 122°28'2 2.3
2016-Jul-19 23:33N 37°50' W 122°26'1 1.4
2016-Jul-19 22:33N 37°49' W 122°25'0 0.0
2016-Jul-19 21:29N 37°49' W 122°25'2 2.3
2016-Jul-19 20:33N 37°49' W 122°28'2 2.0
2016-Jul-19 19:29N 37°49' W 122°25'2 1.8
2016-Jul-19 18:33N 37°49' W 122°27'1 0.7
2016-Jul-19 17:33N 37°50' W 122°27'2 0.1
2016-Jul-19 02:23N 37°49' W 122°25'1 1.1
2016-Jul-19 01:33N 37°49' W 122°25'1 0.9
2016-Jul-19 00:33N 37°49' W 122°25'1 1.1
2016-Jul-18 23:33N 37°49' W 122°26'1 0.7
2016-Jul-18 22:34N 37°49' W 122°27'1 1.5
2016-Jul-18 21:33N 37°50' W 122°25'1 0.9
2016-Jul-18 20:24N 37°49' W 122°25'1 1.4
2016-Jul-18 19:33N 37°50' W 122°25'1 1.2
2016-Jul-18 18:33N 37°49' W 122°25'0 0.1
2016-Jul-18 17:33N 37°49' W 122°25'2 2.2
2016-Jul-18 16:34N 37°49' W 122°28'2 0.2
2016-Jul-18 02:19N 37°49' W 122°25'2 2.7
2016-Jul-18 01:33N 37°49' W 122°27'1 0.8
2016-Jul-18 00:33N 37°50' W 122°27'2 2.0
2016-Jul-17 23:33N 37°49' W 122°25'1 0.6
2016-Jul-17 22:33N 37°49' W 122°25'0 0.0
2016-Jul-17 21:33N 37°49' W 122°25'3 2.9
2016-Jul-17 20:34N 37°49' W 122°28'3 2.8
2016-Jul-17 19:32N 37°49' W 122°25'1 0.9
2016-Jul-17 18:33N 37°49' W 122°26'1 1.4
2016-Jul-17 17:33N 37°50' W 122°27'2 0.1
2016-Jul-17 02:24N 37°49' W 122°25'1 1.8
2016-Jul-17 01:34N 37°49' W 122°27'1 1.2
2016-Jul-17 00:34N 37°49' W 122°28'2 1.7
2016-Jul-16 23:33N 37°50' W 122°26'2 1.6
2016-Jul-16 22:34N 37°49' W 122°25'0 0.0
2016-Jul-16 21:33N 37°49' W 122°25'3 2.6
2016-Jul-16 20:33N 37°49' W 122°28'3 2.6
2016-Jul-16 19:33N 37°49' W 122°25'2 1.7
2016-Jul-16 18:34N 37°49' W 122°27'1 0.6
2016-Jul-16 17:33N 37°49' W 122°27'2 0.1
2016-Jul-16 02:23N 37°49' W 122°25'2 1.8
2016-Jul-16 01:33N 37°49' W 122°27'1 1.0
2016-Jul-16 00:33N 37°50' W 122°27'2 1.5
2016-Jul-15 23:33N 37°49' W 122°25'1 0.8
2016-Jul-15 22:33N 37°49' W 122°25'0 0.0
2016-Jul-15 21:32N 37°49' W 122°25'3 2.9
2016-Jul-15 20:33N 37°49' W 122°28'3 2.6
2016-Jul-15 19:27N 37°49' W 122°25'2 2.3
2016-Jul-15 18:33N 37°49' W 122°27'1 1.1
2016-Jul-15 17:33N 37°50' W 122°27'2 1.7
2016-Jul-15 16:26N 37°49' W 122°25'0 0.0
2016-Jul-15 15:33N 37°49' W 122°25'0 0.0
2016-Jul-15 02:21N 37°49' W 122°25'2 2.8
2016-Jul-15 01:33N 37°49' W 122°28'1 1.0
2016-Jul-15 00:33N 37°50' W 122°27'1 1.1
2016-Jul-14 23:33N 37°50' W 122°25'1 1.1
2016-Jul-14 22:30N 37°49' W 122°25'0 0.0
2016-Jul-14 21:33N 37°49' W 122°25'3 3.2
2016-Jul-14 20:33N 37°49' W 122°29'3 3.1
2016-Jul-14 19:33N 37°49' W 122°25'2 2.5
2016-Jul-14 18:33N 37°49' W 122°28'2 1.7
2016-Jul-14 17:33N 37°50' W 122°26'2 0.1
2016-Jul-14 04:17N 37°49' W 122°25'1 1.5
2016-Jul-14 03:33N 37°49' W 122°26'3 2.8
2016-Jul-14 02:33N 37°52' W 122°27'4 3.7
2016-Jul-14 01:33N 37°49' W 122°25'2 1.9
2016-Jul-14 00:33N 37°50' W 122°27'2 1.8
2016-Jul-13 23:33N 37°49' W 122°25'1 0.8
2016-Jul-13 22:30N 37°49' W 122°25'0 0.0
2016-Jul-13 21:31N 37°49' W 122°25'3 2.8
2016-Jul-13 20:33N 37°49' W 122°28'3 2.0
2016-Jul-13 19:12N 37°49' W 122°25'2 3.6
2016-Jul-13 18:33N 37°49' W 122°28'1 0.8
2016-Jul-13 17:33N 37°49' W 122°27'2 0.1
2016-Jul-13 02:26N 37°49' W 122°25'  

Dump ship's entire track history